Time;durP1;ratioP1;P1;durP2;ratioP2;P2;SDS_P1;SDS_P2;PMS_P1;PMS_P2;Temp;Humidity;BMP_temperature;BMP_pressure;BME280_temperature;BME280_humidity;BME280_pressure;Samples;Min_cycle;Max_cycle;Signal;HPM_P1;HPM_P2
2023/04/21 00:00:44;;;;;;;31.90;25.08;;;;;;;6.60;100.00;101538.88;5053017;28;20475;-82
2023/04/21 00:03:09;;;;;;;31.25;25.80;;;;;;;6.45;100.00;101506.88;5052147;28;20120;-81
2023/04/21 00:05:34;;;;;;;33.20;26.08;;;;;;;6.61;100.00;101536.25;5052139;28;20104;-81
2023/04/21 00:08:00;;;;;;;34.22;27.48;;;;;;;6.45;100.00;101508.63;5052328;28;20559;-82
2023/04/21 00:10:25;;;;;;;33.83;26.92;;;;;;;6.45;100.00;101514.59;5052269;28;20032;-81
2023/04/21 00:12:50;;;;;;;34.38;26.67;;;;;;;6.38;100.00;101507.97;5052145;28;20060;-82
2023/04/21 00:15:16;;;;;;;31.23;25.70;;;;;;;5.63;100.00;101384.91;5052045;28;20021;-84
2023/04/21 00:17:41;;;;;;;35.28;27.73;;;;;;;6.36;100.00;101511.50;5051653;28;20378;-83
2023/04/21 00:20:09;;;;;;;35.47;27.38;;;;;;;6.30;100.00;101503.16;5052247;28;20112;-82
2023/04/21 00:22:34;;;;;;;34.58;28.15;;;;;;;5.56;100.00;101397.97;5050764;28;20082;-82
2023/04/21 00:25:00;;;;;;;34.78;28.10;;;;;;;5.77;100.00;101433.13;5050740;28;20100;-83
2023/04/21 00:27:25;;;;;;;34.80;26.35;;;;;;;6.21;100.00;101498.31;5050520;28;20037;-84
2023/04/21 00:29:50;;;;;;;34.30;26.98;;;;;;;5.83;100.00;101432.94;5051918;28;20032;-82
2023/04/21 00:32:16;;;;;;;34.85;27.05;;;;;;;6.07;100.00;101461.19;5050510;28;20033;-92
2023/04/21 00:34:41;;;;;;;35.42;25.48;;;;;;;5.79;100.00;101415.13;5051764;28;20104;-82
2023/04/21 00:37:06;;;;;;;35.75;27.92;;;;;;;5.67;100.00;101404.41;5051905;28;20080;-82
2023/04/21 00:39:32;;;;;;;34.22;26.58;;;;;;;6.00;100.00;101461.44;5052226;28;20021;-84
2023/04/21 00:41:57;;;;;;;35.17;27.88;;;;;;;6.15;100.00;101482.31;5051882;28;20466;-82
2023/04/21 00:44:22;;;;;;;34.67;26.27;;;;;;;6.16;100.00;101474.56;5051713;28;20463;-85
2023/04/21 00:46:48;;;;;;;36.25;26.92;;;;;;;6.19;100.00;101479.56;5052768;28;20074;-84
2023/04/21 00:49:13;;;;;;;33.92;27.05;;;;;;;6.11;100.00;101473.88;5055415;28;20020;-82
2023/04/21 00:51:39;;;;;;;34.13;27.13;;;;;;;6.10;100.00;101471.38;5056131;28;20021;-82
2023/04/21 00:54:06;;;;;;;33.90;25.60;;;;;;;5.72;100.00;101414.50;5055345;28;20025;-82
2023/04/21 00:56:34;;;;;;;32.78;25.80;;;;;;;6.02;100.00;101454.53;5056603;28;20033;-81
2023/04/21 00:59:00;;;;;;;34.00;26.20;;;;;;;6.09;100.00;101459.41;5056083;28;20423;-91
2023/04/21 01:01:28;;;;;;;35.00;26.10;;;;;;;6.22;100.00;101483.78;5055157;28;20025;-80
2023/04/21 01:03:56;;;;;;;35.95;26.40;;;;;;;6.00;100.00;101446.06;5054853;28;20025;-79
2023/04/21 01:06:22;;;;;;;37.92;25.85;;;;;;;6.23;100.00;101477.75;5055266;28;20029;-81
2023/04/21 01:08:47;;;;;;;36.17;26.10;;;;;;;6.19;100.00;101474.44;5055188;28;20032;-80
2023/04/21 01:11:13;;;;;;;34.85;25.90;;;;;;;6.19;100.00;101471.88;5053648;28;20490;-80
2023/04/21 01:13:39;;;;;;;38.85;26.10;;;;;;;6.20;100.00;101477.88;5054746;28;20120;-80
2023/04/21 01:16:06;;;;;;;33.85;25.92;;;;;;;6.19;100.00;101481.28;5054761;28;20482;-80
2023/04/21 01:18:32;;;;;;;36.92;26.05;;;;;;;6.14;100.00;101468.63;5055035;28;20107;-80
2023/04/21 01:20:58;;;;;;;36.67;27.25;;;;;;;6.15;100.00;101451.53;5054611;28;20112;-81
2023/04/21 01:23:23;;;;;;;36.67;27.02;;;;;;;6.05;100.00;101445.88;5054487;28;20037;-80
2023/04/21 01:25:52;;;;;;;36.92;26.00;;;;;;;6.24;100.00;101461.47;5054576;28;20435;-80
2023/04/21 01:28:24;;;;;;;38.00;27.67;;;;;;;6.02;100.00;101431.44;5054332;28;20052;-81
2023/04/21 01:31:00;;;;;;;;;;;;;;;;;;;;;
2023/04/21 01:33:27;;;;;;;38.17;27.90;;;;;;;5.83;100.00;101396.22;5019413;28;20041;-79
2023/04/21 01:35:52;;;;;;;38.80;27.75;;;;;;;6.22;100.00;101456.41;5054322;28;20125;-79
2023/04/21 01:38:18;;;;;;;36.80;25.92;;;;;;;6.22;100.00;101465.81;5054454;28;20056;-84
2023/04/21 01:40:48;;;;;;;37.13;27.85;;;;;;;5.76;100.00;101386.16;5054436;28;20360;-81
2023/04/21 01:43:16;;;;;;;37.88;27.17;;;;;;;6.24;100.00;101454.63;5054041;28;20033;-85
2023/04/21 01:45:41;;;;;;;38.83;27.02;;;;;;;6.00;100.00;101425.53;5054257;28;20025;-84
2023/04/21 01:48:07;;;;;;;37.05;26.70;;;;;;;6.15;100.00;101444.66;5054185;28;20031;-80
2023/04/21 01:50:32;;;;;;;37.92;26.58;;;;;;;6.17;100.00;101447.19;5054418;28;20029;-81
2023/04/21 01:52:58;;;;;;;39.22;25.85;;;;;;;6.14;100.00;101440.44;5054200;28;20025;-81
2023/04/21 01:55:26;;;;;;;38.03;27.33;;;;;;;6.04;100.00;101428.81;5054232;28;20056;-83
2023/04/21 01:57:51;;;;;;;39.33;27.35;;;;;;;6.00;100.00;101405.03;5053737;28;20115;-92
2023/04/21 02:00:16;;;;;;;38.17;27.33;;;;;;;5.88;100.00;101386.63;5053018;28;20081;-88
2023/04/21 02:02:42;;;;;;;39.25;27.08;;;;;;;6.14;100.00;101426.78;5057540;28;20060;-92
2023/04/21 02:05:07;;;;;;;35.50;25.20;;;;;;;5.73;100.00;101360.66;5057557;28;20431;-87
2023/04/21 02:07:35;;;;;;;36.38;25.42;;;;;;;6.12;100.00;101419.16;5055890;28;20029;-82
2023/04/21 02:10:00;;;;;;;36.97;26.17;;;;;;;6.13;100.00;101423.38;5055813;28;20497;-85
2023/04/21 02:12:26;;;;;;;39.50;27.60;;;;;;;5.03;100.00;101239.28;5055217;28;20033;-93
2023/04/21 02:14:51;;;;;;;38.35;26.52;;;;;;;5.67;100.00;101342.91;5055098;28;20021;-93
2023/04/21 02:17:17;;;;;;;37.28;27.05;;;;;;;5.37;100.00;101287.59;5054606;28;20363;-82
2023/04/21 02:19:42;;;;;;;38.83;28.10;;;;;;;5.93;100.00;101382.22;5054179;28;20100;-92
2023/04/21 02:22:09;;;;;;;38.85;26.88;;;;;;;5.70;100.00;101335.13;5054689;28;20387;-91
2023/04/21 02:24:35;;;;;;;42.08;29.25;;;;;;;6.02;100.00;101397.28;5053135;28;20040;-93
2023/04/21 02:27:01;;;;;;;41.40;28.23;;;;;;;5.60;100.00;101326.06;5053959;28;20032;-93
2023/04/21 02:29:27;;;;;;;40.88;28.60;;;;;;;6.03;100.00;101391.25;5052678;28;20490;-91
2023/04/21 02:31:52;;;;;;;39.97;28.02;;;;;;;6.02;100.00;101390.44;5054175;28;20035;-92
2023/04/21 02:34:17;;;;;;;41.42;28.80;;;;;;;5.72;100.00;101341.03;5053594;28;20110;-91
2023/04/21 02:36:43;;;;;;;41.72;29.17;;;;;;;6.07;100.00;101399.66;5053689;28;20119;-88
2023/04/21 02:39:08;;;;;;;40.83;28.73;;;;;;;5.13;100.00;101238.06;5051986;28;20036;-88
2023/04/21 02:41:33;;;;;;;43.83;29.13;;;;;;;5.49;100.00;101297.41;5054304;28;20036;-91
2023/04/21 02:43:59;;;;;;;42.42;29.85;;;;;;;5.72;100.00;101319.69;5054973;28;20036;-91
2023/04/21 02:46:24;;;;;;;43.28;30.55;;;;;;;6.10;100.00;101377.34;5053993;28;20029;-88
2023/04/21 02:48:50;;;;;;;42.58;30.17;;;;;;;5.87;100.00;101346.50;5053618;28;20079;-91
2023/04/21 02:51:15;;;;;;;42.67;28.70;;;;;;;5.99;100.00;101364.88;5051797;28;20032;-89
2023/04/21 02:53:42;;;;;;;43.42;28.92;;;;;;;5.74;100.00;101325.59;5053539;28;20025;-88
2023/04/21 02:56:08;;;;;;;47.38;32.33;;;;;;;6.00;100.00;101360.63;5053155;28;20471;-86
2023/04/21 02:58:39;;;;;;;45.20;30.80;;;;;;;6.11;100.00;101378.19;5053464;28;20074;-89
2023/04/21 03:01:05;;;;;;;48.40;33.65;;;;;;;6.00;100.00;101358.88;5053189;28;20114;-89
2023/04/21 03:03:31;;;;;;;45.53;31.45;;;;;;;6.05;100.00;101363.84;5052833;28;20455;-91
2023/04/21 03:05:58;;;;;;;47.95;32.38;;;;;;;5.92;100.00;101344.66;5052641;28;20036;-91
2023/04/21 03:08:23;;;;;;;46.72;29.83;;;;;;;6.06;100.00;101364.66;5052823;28;20471;-84
2023/04/21 03:10:49;;;;;;;48.67;32.60;;;;;;;5.74;100.00;101318.75;5052675;28;20033;-89
2023/04/21 03:13:17;;;;;;;50.42;32.85;;;;;;;5.46;100.00;101272.75;5052728;28;20032;-91
2023/04/21 03:15:43;;;;;;;50.72;33.80;;;;;;;5.86;100.00;101332.84;5049990;28;20033;-88
2023/04/21 03:18:09;;;;;;;55.20;34.05;;;;;;;5.71;100.00;101307.78;5051089;28;20043;-89
2023/04/21 03:20:34;;;;;;;54.75;34.90;;;;;;;5.88;100.00;101325.94;5052666;28;20025;-90
2023/04/21 03:23:00;;;;;;;52.92;35.08;;;;;;;6.16;100.00;101376.28;5052811;28;20078;-89
2023/04/21 03:25:28;;;;;;;51.75;34.63;;;;;;;5.96;100.00;101339.34;5051352;28;20086;-90
2023/04/21 03:27:54;;;;;;;55.13;35.10;;;;;;;6.11;100.00;101363.63;5052644;28;20033;-90
2023/04/21 03:30:21;;;;;;;50.65;33.15;;;;;;;5.68;100.00;101301.00;5052429;28;20075;-90
2023/04/21 03:32:46;;;;;;;55.50;35.70;;;;;;;5.98;100.00;101357.25;5052174;28;20022;-90
2023/04/21 03:35:11;;;;;;;53.08;34.67;;;;;;;5.93;100.00;101354.03;5052213;28;20028;-91
2023/04/21 03:37:37;;;;;;;56.58;37.10;;;;;;;5.58;100.00;101309.91;5052806;28;20029;-90
2023/04/21 03:40:06;;;;;;;57.33;36.38;;;;;;;5.73;100.00;101335.03;5034733;28;20052;-90
2023/04/21 03:42:32;;;;;;;55.47;35.90;;;;;;;5.48;100.00;101299.16;5052442;28;20025;-89
2023/04/21 03:45:02;;;;;;;55.50;35.75;;;;;;;5.59;100.00;101309.03;5052343;28;20471;-89
2023/04/21 03:47:27;;;;;;;62.25;38.15;;;;;;;5.74;100.00;101323.03;5050803;28;20483;-90
2023/04/21 03:49:52;;;;;;;64.20;39.45;;;;;;;5.92;100.00;101355.75;5052130;28;20036;-89
2023/04/21 03:52:18;;;;;;;61.38;39.03;;;;;;;5.93;100.00;101352.28;5052450;28;20153;-88
2023/04/21 03:54:43;;;;;;;59.72;38.33;;;;;;;5.67;100.00;101303.63;5051187;28;20036;-88
2023/04/21 03:57:08;;;;;;;64.10;39.00;;;;;;;5.24;100.00;101233.41;5051307;28;20127;-89
2023/04/21 03:59:34;;;;;;;62.65;37.53;;;;;;;4.89;100.00;101183.41;5051283;28;20025;-89
2023/04/21 04:02:05;;;;;;;62.03;37.33;;;;;;;4.69;100.00;101158.50;5052332;28;20028;-84
2023/04/21 04:04:31;;;;;;;60.58;38.38;;;;;;;4.31;100.00;101100.94;5052056;28;20067;-83
2023/04/21 04:07:06;;;;;;;63.05;38.42;;;;;;;5.23;100.00;101259.91;5052128;28;20114;-83
2023/04/21 04:09:31;;;;;;;61.08;38.47;;;;;;;4.46;100.00;101145.63;5052227;28;20032;-84
2023/04/21 04:15:44;;;;;;;63.67;38.63;;;;;;;4.28;100.00;101124.88;5052924;28;20048;-83
2023/04/21 04:18:24;;;;;;;62.92;38.80;;;;;;;4.96;100.00;101259.09;5052177;28;20060;-82
2023/04/21 04:20:56;;;;;;;59.73;36.23;;;;;;;4.27;100.00;101141.09;5052263;28;20025;-83
2023/04/21 04:23:22;;;;;;;60.33;37.47;;;;;;;4.21;100.00;101133.63;5054153;28;20025;-82
2023/04/21 04:25:48;;;;;;;66.28;39.63;;;;;;;4.73;100.00;101223.19;5054809;28;20517;-82
2023/04/21 04:28:16;;;;;;;73.07;40.13;;;;;;;4.03;100.00;101113.75;5055790;28;20030;-83
2023/04/21 04:30:42;;;;;;;61.53;37.38;;;;;;;5.53;100.00;101340.00;5055825;28;20108;-83
2023/04/21 04:33:13;;;;;;;65.75;40.38;;;;;;;5.55;100.00;101348.44;5055775;28;20025;-83
2023/04/21 04:35:39;;;;;;;62.58;38.38;;;;;;;5.46;100.00;101325.72;5037980;28;20025;-83
2023/04/21 04:38:06;;;;;;;66.18;38.75;;;;;;;4.75;100.00;101203.50;5055651;28;20065;-83
2023/04/21 04:40:32;;;;;;;65.47;40.15;;;;;;;5.21;100.00;101268.50;5054238;28;20029;-82
2023/04/21 04:42:57;;;;;;;66.03;39.60;;;;;;;5.74;100.00;101359.75;5054300;28;20025;-83
2023/04/21 04:45:31;;;;;;;64.30;39.28;;;;;;;5.23;100.00;101274.44;5054997;28;20033;-83
2023/04/21 04:47:57;;;;;;;62.75;38.13;;;;;;;4.87;100.00;101229.53;5055585;28;20029;-83
2023/04/21 04:50:26;;;;;;;62.75;38.95;;;;;;;5.28;100.00;101304.09;5055509;28;20036;-85
2023/04/21 04:52:55;;;;;;;64.30;39.83;;;;;;;4.77;100.00;101207.69;5055411;28;20040;-83
2023/04/21 04:55:24;;;;;;;65.18;40.22;;;;;;;5.26;100.00;101275.16;5053968;28;20028;-84
2023/04/21 04:57:56;;;;;;;67.97;40.13;;;;;;;5.16;100.00;101250.75;5055185;28;20497;-86
2023/04/21 05:00:24;;;;;;;66.95;40.90;;;;;;;4.49;100.00;101148.91;5055066;28;20100;-84
2023/04/21 05:02:58;;;;;;;66.05;38.72;;;;;;;5.88;100.00;101364.38;5055064;28;20028;-84
2023/04/21 05:05:25;;;;;;;65.22;39.13;;;;;;;5.05;100.00;101212.72;5054957;28;20021;-83
2023/04/21 05:07:56;;;;;;;66.43;39.08;;;;;;;4.66;100.00;101155.22;5055014;28;20167;-83
2023/04/21 05:10:36;;;;;;;68.53;41.20;;;;;;;5.23;100.00;101231.75;5055116;28;20028;-83
2023/04/21 05:13:05;;;;;;;68.20;40.78;;;;;;;4.70;100.00;101144.81;5054941;28;20029;-83
2023/04/21 05:15:39;;;;;;;70.60;39.88;;;;;;;4.62;100.00;101144.22;5054540;28;20056;-83
2023/04/21 05:18:06;;;;;;;66.70;39.97;;;;;;;6.01;100.00;101380.22;5054602;28;20391;-84
2023/04/21 05:20:31;;;;;;;69.57;42.42;;;;;;;4.79;100.00;101175.19;5054538;28;20439;-83
2023/04/21 05:23:12;;;;;;;70.45;40.70;;;;;;;5.97;100.00;101383.78;5053769;28;20052;-83
2023/04/21 05:25:37;;;;;;;62.08;41.28;;;;;;;4.65;100.00;101161.22;5054484;28;20056;-83
2023/04/21 05:28:03;;;;;;;70.80;40.78;;;;;;;4.72;100.00;101168.66;5053185;28;20037;-83
2023/04/21 05:30:46;;;;;;;68.30;40.83;;;;;;;5.51;100.00;101287.16;5054473;28;20029;-83
2023/04/21 05:33:12;;;;;;;72.60;45.38;;;;;;;5.13;100.00;101220.16;5053276;28;20107;-84
2023/04/21 05:35:40;;;;;;;67.53;41.00;;;;;;;5.66;100.00;101301.97;5054644;28;20100;-84
2023/04/21 05:38:06;;;;;;;73.22;43.65;;;;;;;6.17;100.00;101395.88;5054608;28;20091;-83
2023/04/21 05:40:54;;;;;;;72.13;43.28;;;;;;;6.27;100.00;101387.81;5054260;28;20025;-83
2023/04/21 05:43:20;;;;;;;73.43;44.55;;;;;;;6.27;100.00;101362.16;5054148;28;20101;-83
2023/04/21 05:46:00;;;;;;;73.75;44.75;;;;;;;6.64;100.00;101390.75;5054006;28;20448;-84
2023/04/21 05:48:25;;;;;;;70.88;40.88;;;;;;;6.76;100.00;101395.44;5054221;28;20032;-83
2023/04/21 05:50:50;;;;;;;70.78;42.58;;;;;;;6.56;100.00;101332.03;5054102;28;20397;-83
2023/04/21 05:53:16;;;;;;;70.97;44.72;;;;;;;7.43;100.00;101398.75;5052949;28;20021;-82
2023/04/21 05:55:41;;;;;;;63.67;40.55;;;;;;;7.33;100.00;101338.34;5053976;28;20104;-85
2023/04/21 05:58:36;;;;;;;55.63;37.47;;;;;;;7.08;100.00;101299.16;5054207;28;20029;-85
2023/04/21 06:01:11;;;;;;;56.13;37.70;;;;;;;7.86;100.00;101402.09;5031451;28;20041;-82
2023/04/21 06:03:37;;;;;;;58.00;37.65;;;;;;;7.23;100.00;101278.00;5032030;28;20124;-82
2023/04/21 06:06:05;;;;;;;55.88;38.67;;;;;;;8.21;100.00;101364.56;5032026;28;20146;-81
2023/04/21 06:08:33;;;;;;;49.10;33.78;;;;;;;7.59;100.00;101234.47;5031811;28;20078;-81
2023/04/21 06:11:03;;;;;;;50.88;34.42;;;;;;;7.46;100.00;101228.19;5031581;28;20025;-85
2023/04/21 06:13:37;;;;;;;54.10;35.60;;;;;;;7.25;100.00;101213.69;5032091;28;20037;-84
2023/04/21 06:16:03;;;;;;;52.63;36.08;;;;;;;7.47;100.00;101230.72;5031514;28;20025;-86
2023/04/21 06:18:35;;;;;;;45.92;32.03;;;;;;;8.75;100.00;101351.84;5031716;28;20045;-91
2023/04/21 06:21:03;;;;;;;;;;;;;;;9.68;100.00;101389.38;5032104;28;20478;-83
2023/04/21 06:23:41;;;;;;;48.78;34.30;;;;;;;10.13;100.00;101382.78;5031805;28;19999;-88
2023/04/21 06:26:09;;;;;;;47.33;34.00;;;;;;;9.59;100.00;101239.47;5031611;28;20128;-87
2023/04/21 06:28:36;;;;;;;41.65;30.40;;;;;;;9.74;99.90;101270.44;5022012;28;20018;-84
2023/04/21 06:31:35;;;;;;;41.90;31.98;;;;;;;10.74;100.00;101389.03;5012346;28;20038;-85
2023/04/21 06:36:37;;;;;;;39.63;29.42;;;;;;;11.56;90.76;101185.19;5181884;22;20052;-86
2023/04/21 06:39:21;;;;;;;38.83;29.30;;;;;;;13.25;89.40;101286.66;5053112;28;20025;-84
2023/04/21 06:42:05;;;;;;;34.85;25.88;;;;;;;14.47;84.25;101387.34;5051852;28;20485;-85
2023/04/21 06:44:38;;;;;;;32.97;27.05;;;;;;;14.76;79.79;101364.47;5052774;28;20439;-85
2023/04/21 06:47:04;;;;;;;35.22;27.35;;;;;;;14.95;73.78;101319.78;5053006;28;20478;-84
2023/04/21 06:53:00;;;;;;;32.85;24.58;;;;;;;16.42;69.65;101304.97;5053136;28;20390;-85
2023/04/21 06:59:13;;;;;;;31.38;23.92;;;;;;;16.74;69.03;101382.41;5053284;28;20048;-85
2023/04/21 07:01:51;;;;;;;29.35;23.80;;;;;;;15.48;66.75;101189.03;5053000;28;20116;-84
2023/04/21 07:04:41;;;;;;;32.30;25.23;;;;;;;17.05;67.32;101380.78;5052302;28;20478;-86
2023/04/21 07:07:23;;;;;;;32.38;24.63;;;;;;;15.43;65.82;101196.38;5051195;28;20041;-83
2023/04/21 07:09:58;;;;;;;30.13;25.02;;;;;;;15.84;66.88;101306.13;5052328;28;20021;-82
2023/04/21 07:12:29;;;;;;;29.55;24.13;;;;;;;14.92;64.74;101175.19;5052621;28;20474;-81
2023/04/21 07:14:57;;;;;;;29.98;24.85;;;;;;;15.21;67.80;101353.31;5052733;28;20036;-84
2023/04/21 07:17:35;;;;;;;32.83;25.27;;;;;;;13.93;73.01;101283.72;5052283;28;20390;-82
2023/04/21 07:20:00;;;;;;;32.25;26.55;;;;;;;13.42;73.40;101278.59;5052153;28;20024;-81
2023/04/21 07:22:26;;;;;;;30.95;25.00;;;;;;;13.22;75.93;101334.38;5052485;28;20466;-83
2023/04/21 07:24:51;;;;;;;30.40;25.13;;;;;;;12.99;76.20;101387.72;5052098;28;20494;-83
2023/04/21 07:27:22;;;;;;;32.30;25.42;;;;;;;12.40;80.27;101363.81;5051630;28;20536;-82
2023/04/21 07:30:08;;;;;;;31.75;26.17;;;;;;;12.24;81.21;101399.34;5052471;28;20025;-81
2023/04/21 07:32:33;;;;;;;32.65;26.38;;;;;;;12.03;83.24;101391.94;5033823;28;20127;-83
2023/04/21 07:35:00;;;;;;;32.03;26.30;;;;;;;12.07;83.00;101359.75;5050562;28;20558;-83
2023/04/21 07:37:26;;;;;;;31.38;26.58;;;;;;;11.90;83.02;101328.09;5052398;28;20035;-82
2023/04/21 07:39:51;;;;;;;34.13;26.98;;;;;;;12.07;83.25;101384.81;5052674;28;20037;-83
2023/04/21 07:42:17;;;;;;;33.45;27.05;;;;;;;11.71;84.53;101334.31;5052433;28;20128;-83
2023/04/21 07:44:42;;;;;;;33.17;27.40;;;;;;;11.96;84.20;101369.09;5052564;28;20029;-82
2023/04/21 07:47:07;;;;;;;32.00;27.35;;;;;;;11.46;83.11;101298.72;5052294;28;20025;-82
2023/04/21 07:49:33;;;;;;;30.83;25.50;;;;;;;11.98;83.60;101360.31;5052054;28;20028;-83
2023/04/21 07:51:58;;;;;;;32.63;26.50;;;;;;;12.21;85.13;101381.41;5052260;28;20378;-83
2023/04/21 07:54:26;;;;;;;30.95;25.25;;;;;;;12.17;84.92;101374.72;5052240;28;20025;-83
2023/04/21 07:56:52;;;;;;;33.50;26.58;;;;;;;12.16;84.50;101379.09;5053411;28;20030;-82
2023/04/21 07:59:17;;;;;;;31.98;26.10;;;;;;;11.85;84.63;101317.16;5054267;28;20036;-82
2023/04/21 08:01:42;;;;;;;33.85;27.42;;;;;;;12.24;84.86;101373.44;5056271;28;20146;-83
2023/04/21 08:04:08;;;;;;;30.85;24.60;;;;;;;12.06;84.12;101370.22;5054407;28;20479;-82
2023/04/21 08:06:33;;;;;;;32.72;26.33;;;;;;;11.95;85.35;101362.25;5056173;28;20431;-82
2023/04/21 08:08:59;;;;;;;33.25;26.42;;;;;;;11.88;85.93;101364.38;5056346;28;20486;-83
2023/04/21 08:11:24;;;;;;;32.60;25.98;;;;;;;11.57;87.38;101315.34;5056055;28;20029;-85
2023/04/21 08:13:52;;;;;;;33.15;26.27;;;;;;;11.70;89.17;101318.88;5056129;28;20020;-83
2023/04/21 08:16:20;;;;;;;29.95;24.23;;;;;;;11.89;85.51;101367.78;5055810;28;20029;-84
2023/04/21 08:18:46;;;;;;;29.42;23.90;;;;;;;11.87;85.13;101367.06;5055656;28;20024;-83
2023/04/21 08:21:11;;;;;;;30.58;23.70;;;;;;;11.76;85.87;101332.28;5055899;28;20413;-83
2023/04/21 08:23:36;;;;;;;29.08;23.05;;;;;;;11.95;84.46;101364.84;5054220;28;20064;-83
2023/04/21 08:26:05;;;;;;;27.05;22.08;;;;;;;11.91;85.83;101371.16;5055954;28;20021;-82
2023/04/21 08:28:30;;;;;;;27.35;22.02;;;;;;;11.29;86.38;101256.66;5055991;28;20103;-82
2023/04/21 08:30:56;;;;;;;24.23;20.17;;;;;;;12.10;83.97;101371.72;5055657;28;20109;-82
2023/04/21 08:33:21;;;;;;;27.95;21.08;;;;;;;11.90;84.41;101320.31;5055628;28;20095;-80
2023/04/21 08:35:47;;;;;;;28.50;22.00;;;;;;;12.19;83.93;101353.03;5055394;28;20095;-82
2023/04/21 08:38:12;;;;;;;24.70;20.65;;;;;;;12.29;83.74;101351.53;5055763;28;20075;-79
2023/04/21 08:40:38;;;;;;;25.77;20.45;;;;;;;12.25;83.07;101329.31;5055691;28;20482;-80
2023/04/21 08:43:05;;;;;;;26.48;21.00;;;;;;;12.69;83.07;101361.16;5039789;28;20036;-78
2023/04/21 08:45:31;;;;;;;25.55;20.23;;;;;;;12.53;83.32;101296.53;5035997;28;20490;-79
2023/04/21 08:47:58;;;;;;;26.13;20.42;;;;;;;12.84;80.95;101337.69;5036019;28;20479;-82
2023/04/21 08:50:27;;;;;;;26.13;21.27;;;;;;;12.45;82.33;101257.31;5035241;28;20029;-83
2023/04/21 08:52:53;;;;;;;24.80;19.00;;;;;;;13.04;80.29;101362.31;5035367;28;20033;-84
2023/04/21 08:55:22;;;;;;;25.13;20.10;;;;;;;12.91;78.63;101361.44;5035538;28;20391;-82
2023/04/21 08:57:48;;;;;;;23.35;19.13;;;;;;;12.98;78.92;101348.91;5035001;28;20026;-81
2023/04/21 09:00:13;;;;;;;24.98;21.55;;;;;;;12.96;77.99;101332.63;5035542;28;20083;-88
2023/04/21 09:02:59;;;;;;;26.40;22.38;;;;;;;13.34;78.38;101356.91;5033923;28;20075;-82
2023/04/21 09:05:30;;;;;;;24.88;20.60;;;;;;;13.05;78.76;101311.28;5035330;28;20029;-82
2023/04/21 09:08:10;;;;;;;22.42;19.25;;;;;;;13.51;76.83;101360.16;5033803;28;20029;-80
2023/04/21 09:10:47;;;;;;;24.67;20.63;;;;;;;13.46;76.22;101350.06;5033588;28;20037;-82
2023/04/21 09:13:13;;;;;;;24.25;20.15;;;;;;;13.61;77.50;101349.06;5035012;28;20441;-81
2023/04/21 09:15:40;;;;;;;23.48;19.75;;;;;;;13.60;75.07;101321.44;5034871;28;20060;-83
2023/04/21 09:18:13;;;;;;;22.02;18.20;;;;;;;13.60;73.51;101315.44;5034689;28;20029;-83
2023/04/21 09:20:39;;;;;;;24.85;17.67;;;;;;;13.85;73.31;101348.31;5035022;28;20029;-82
2023/04/21 09:23:05;;;;;;;22.02;18.13;;;;;;;13.73;73.75;101306.69;5034836;28;20034;-81
2023/04/21 09:25:31;;;;;;;23.27;19.02;;;;;;;13.89;74.67;101301.28;5034770;28;20021;-83
2023/04/21 09:27:57;;;;;;;25.15;19.95;;;;;;;14.30;73.92;101339.13;5033573;28;20028;-83
2023/04/21 09:30:22;;;;;;;22.67;18.80;;;;;;;14.21;73.29;101331.97;5034663;28;20025;-83
2023/04/21 09:32:48;;;;;;;22.73;19.63;;;;;;;14.27;73.81;101336.75;5034915;28;20356;-81
2023/04/21 09:35:13;;;;;;;22.60;18.80;;;;;;;14.26;72.12;101338.53;5033159;28;20136;-82
2023/04/21 09:37:42;;;;;;;22.75;18.98;;;;;;;14.31;72.55;101336.41;5034694;28;20087;-82
2023/04/21 09:40:13;;;;;;;22.77;19.20;;;;;;;14.18;71.28;101335.63;5034479;28;20022;-82
2023/04/21 09:42:40;;;;;;;23.45;20.00;;;;;;;14.22;71.68;101350.03;5034462;28;20123;-82
2023/04/21 09:45:08;;;;;;;21.23;18.58;;;;;;;13.65;71.73;101264.88;5033201;28;20032;-83
2023/04/21 09:47:39;;;;;;;21.92;18.92;;;;;;;14.22;75.44;101337.06;5037534;28;20025;-80
2023/04/21 09:50:07;;;;;;;21.15;18.38;;;;;;;14.58;72.48;101319.84;5034763;28;20363;-79
2023/04/21 09:52:33;;;;;;;21.17;18.55;;;;;;;14.75;70.76;101340.25;5034129;28;20025;-78
2023/04/21 09:55:03;;;;;;;22.50;19.27;;;;;;;14.70;70.24;101323.31;5033990;28;20477;-82
2023/04/21 09:57:30;;;;;;;22.25;18.95;;;;;;;14.41;71.19;101278.59;5032311;28;20064;-81
2023/04/21 10:00:01;;;;;;;19.50;16.20;;;;;;;14.51;67.98;101313.41;5034099;28;20025;-82
2023/04/21 10:02:29;;;;;;;17.98;15.40;;;;;;;14.71;71.30;101333.59;5034198;28;20037;-80
2023/04/21 10:04:54;;;;;;;16.80;13.98;;;;;;;14.97;70.05;101291.88;5033915;28;20047;-81
2023/04/21 10:07:20;;;;;;;16.65;14.25;;;;;;;15.32;65.88;101317.84;5016605;28;20029;-80
2023/04/21 10:09:52;;;;;;;17.55;13.95;;;;;;;14.93;65.88;101286.88;5033952;28;20084;-82
2023/04/21 10:12:18;;;;;;;18.58;15.35;;;;;;;14.96;66.62;101322.25;5033619;28;20459;-84
2023/04/21 10:14:44;;;;;;;16.67;14.55;;;;;;;14.65;66.86;101313.25;5034749;28;20065;-85
2023/04/21 10:17:10;;;;;;;19.98;15.40;;;;;;;14.50;68.20;101309.97;5036499;28;20075;-86
2023/04/21 10:19:46;;;;;;;18.20;15.60;;;;;;;14.33;68.04;101297.31;5032959;28;20033;-86
2023/04/21 10:22:11;;;;;;;19.52;15.93;;;;;;;14.50;67.78;101298.75;5033559;28;20633;-84
2023/04/21 10:24:41;;;;;;;18.98;15.80;;;;;;;14.88;68.95;101309.81;5033658;28;20104;-83
2023/04/21 10:27:11;;;;;;;19.45;16.40;;;;;;;15.31;67.18;101317.03;5033587;28;20036;-86
2023/04/21 10:29:37;;;;;;;22.00;18.10;;;;;;;15.44;67.52;101306.53;5033616;28;20033;-85
2023/04/21 10:32:03;;;;;;;21.70;16.90;;;;;;;15.44;67.09;101280.50;5033197;28;20033;-83
2023/04/21 10:34:36;;;;;;;17.55;15.07;;;;;;;15.49;63.16;101299.19;5033138;28;20475;-84
2023/04/21 10:37:05;;;;;;;18.40;14.90;;;;;;;15.36;64.81;101298.47;5033242;28;20465;-83
2023/04/21 10:39:32;;;;;;;18.23;15.05;;;;;;;15.41;65.32;101280.72;5033436;28;20506;-85
2023/04/21 10:42:24;;;;;;;18.70;16.15;;;;;;;14.82;66.28;101151.66;5031994;28;20029;-85
2023/04/21 10:45:01;;;;;;;20.40;17.10;;;;;;;15.75;64.53;101279.84;5033335;28;20422;-84
2023/04/21 10:47:44;;;;;;;19.48;15.88;;;;;;;15.49;65.28;101266.19;5033276;28;20495;-85
2023/04/21 10:50:30;;;;;;;19.30;17.30;;;;;;;15.26;65.59;101254.09;5032947;28;20029;-87
2023/04/21 10:53:10;;;;;;;23.42;19.65;;;;;;;15.11;65.58;101271.69;5032883;28;20046;-86
2023/04/21 10:55:36;;;;;;;21.08;18.80;;;;;;;14.82;67.50;101231.41;5033050;28;20388;-86
2023/04/21 10:58:04;;;;;;;22.50;20.10;;;;;;;14.79;66.04;101240.28;5032874;28;20045;-85
2023/04/21 11:00:30;;;;;;;22.13;19.75;;;;;;;14.65;66.07;101245.69;5031792;28;20387;-86
2023/04/21 11:03:01;;;;;;;23.20;20.80;;;;;;;14.73;67.71;101251.13;5032977;28;20084;-85
2023/04/21 11:05:37;;;;;;;22.02;19.63;;;;;;;14.99;70.38;101244.00;5032657;28;20021;-86
2023/04/21 11:08:11;;;;;;;19.02;16.58;;;;;;;15.25;67.73;101236.00;5032964;28;20024;-85
2023/04/21 11:10:44;;;;;;;20.67;18.48;;;;;;;15.43;66.01;101251.03;5032714;28;20033;-86
2023/04/21 11:13:12;;;;;;;20.55;17.42;;;;;;;15.12;65.40;101178.88;5032894;28;20029;-86
2023/04/21 11:15:37;;;;;;;21.55;19.35;;;;;;;15.59;65.83;101237.66;5033054;28;20029;-87
2023/04/21 11:18:02;;;;;;;22.27;19.98;;;;;;;15.17;64.33;101227.00;5032851;28;20418;-86
2023/04/21 11:20:28;;;;;;;22.52;20.23;;;;;;;14.97;66.33;101240.69;5031426;28;20149;-85
2023/04/21 11:22:55;;;;;;;20.30;17.80;;;;;;;14.66;66.83;101202.31;5031202;28;20478;-84
2023/04/21 11:25:21;;;;;;;21.48;19.30;;;;;;;14.66;65.61;101184.13;5031479;28;20038;-85
2023/04/21 11:27:54;;;;;;;22.15;19.40;;;;;;;14.47;66.46;101143.91;5032588;28;20406;-83
2023/04/21 11:30:20;;;;;;;23.50;21.10;;;;;;;14.91;66.30;101222.94;5032849;28;20033;-82